createdAt,value
2024-02-29T00:00:15.532Z,2.55
2024-02-29T00:02:42.597Z,2.90
2024-02-29T00:05:13.485Z,2.70
2024-02-29T00:07:41.499Z,1.85
2024-02-29T00:10:10.357Z,2.70
2024-02-29T00:12:37.654Z,1.50
2024-02-29T00:15:04.943Z,1.60
2024-02-29T00:17:33.029Z,1.40
2024-02-29T00:20:00.621Z,1.83
2024-02-29T00:22:27.507Z,1.60
2024-02-29T00:24:54.431Z,1.92
2024-02-29T00:27:22.461Z,1.65
2024-02-29T00:29:49.459Z,1.10
2024-02-29T00:32:16.274Z,2.22
2024-02-29T00:34:43.095Z,1.42
2024-02-29T00:37:10.578Z,1.73
2024-02-29T00:39:37.520Z,1.42
2024-02-29T00:42:04.410Z,2.75
2024-02-29T00:44:31.237Z,1.73
2024-02-29T00:46:58.027Z,2.10
2024-02-29T00:49:24.977Z,1.55
2024-02-29T00:51:51.927Z,2.00
2024-02-29T00:54:19.022Z,2.15
2024-02-29T00:56:45.920Z,1.83
2024-02-29T00:59:12.735Z,2.50
2024-02-29T01:01:39.611Z,2.10
2024-02-29T01:04:06.561Z,2.08
2024-02-29T01:06:33.454Z,1.70
2024-02-29T01:09:01.349Z,1.65
2024-02-29T01:11:28.340Z,1.90
2024-02-29T01:13:55.226Z,2.47
2024-02-29T01:16:22.083Z,1.45
2024-02-29T01:18:49.186Z,1.33
2024-02-29T01:21:16.104Z,1.25
2024-02-29T01:23:42.949Z,1.88
2024-02-29T01:26:11.614Z,1.75
2024-02-29T01:28:38.486Z,1.35
2024-02-29T01:31:05.488Z,1.58
2024-02-29T01:33:32.472Z,1.10
2024-02-29T01:35:59.299Z,1.65
2024-02-29T01:38:26.097Z,1.35
2024-02-29T01:40:53.556Z,2.13
2024-02-29T01:43:20.538Z,1.60
2024-02-29T01:45:51.623Z,2.30
2024-02-29T01:48:18.716Z,5.72
2024-02-29T01:50:45.915Z,6.60
2024-02-29T01:53:12.934Z,5.25
2024-02-29T01:55:39.772Z,4.95
2024-02-29T01:58:06.720Z,2.88
2024-02-29T02:00:34.407Z,3.00
2024-02-29T02:03:01.293Z,2.17
2024-02-29T02:05:28.859Z,3.00
2024-02-29T02:07:56.425Z,1.08
2024-02-29T02:10:23.358Z,1.10
2024-02-29T02:12:50.201Z,1.17
2024-02-29T02:15:17.195Z,1.15
2024-02-29T02:17:44.258Z,0.80
2024-02-29T02:20:18.320Z,0.68
2024-02-29T02:22:45.331Z,0.70
2024-02-29T02:25:12.925Z,0.60
2024-02-29T02:27:40.227Z,0.70
2024-02-29T02:30:08.238Z,0.52
2024-02-29T02:32:36.632Z,0.65
2024-02-29T02:35:08.262Z,0.28
2024-02-29T02:37:36.203Z,0.43
2024-02-29T02:40:06.190Z,0.82
2024-02-29T02:42:33.816Z,0.50
2024-02-29T02:45:00.846Z,0.63
2024-02-29T02:47:27.834Z,0.40
2024-02-29T02:49:54.846Z,0.70
2024-02-29T02:52:21.807Z,0.57
2024-02-29T02:54:49.012Z,0.50
2024-02-29T02:57:15.867Z,1.13
2024-02-29T02:59:42.739Z,0.50
2024-02-29T03:02:09.591Z,0.32
2024-02-29T03:04:36.519Z,0.50
2024-02-29T03:07:03.529Z,1.73
2024-02-29T03:09:31.809Z,0.40
2024-02-29T03:11:58.788Z,0.50
2024-02-29T03:14:25.583Z,0.43
2024-02-29T03:16:52.396Z,0.50
2024-02-29T03:19:19.264Z,0.65
2024-02-29T03:21:46.475Z,0.70
2024-02-29T03:24:13.386Z,0.30
2024-02-29T03:26:40.204Z,1.02
2024-02-29T03:29:08.399Z,0.40
2024-02-29T03:31:35.345Z,0.57
2024-02-29T03:34:04.134Z,0.40
2024-02-29T03:36:31.224Z,0.40
2024-02-29T03:38:59.065Z,0.40
2024-02-29T03:41:26.113Z,0.45
2024-02-29T03:43:52.994Z,0.40
2024-02-29T03:46:19.903Z,0.40
2024-02-29T03:48:46.779Z,0.50
2024-02-29T03:51:14.180Z,0.40
2024-02-29T03:53:41.039Z,0.50
2024-02-29T03:56:07.910Z,0.77
2024-02-29T03:58:34.725Z,0.38
2024-02-29T04:01:01.753Z,0.47
2024-02-29T04:03:28.662Z,0.30
2024-02-29T04:05:56.308Z,0.40
2024-02-29T04:08:23.203Z,0.82
2024-02-29T04:10:51.772Z,0.77
2024-02-29T04:13:19.277Z,0.55
2024-02-29T04:15:49.705Z,0.52
2024-02-29T04:18:17.362Z,0.45
2024-02-29T04:20:45.169Z,0.98
2024-02-29T04:23:12.444Z,0.57
2024-02-29T04:25:39.506Z,0.50
2024-02-29T04:28:06.727Z,0.73
2024-02-29T04:30:33.874Z,0.60
2024-02-29T04:33:01.723Z,0.70
2024-02-29T04:35:28.604Z,0.80
2024-02-29T04:37:55.484Z,0.70
2024-02-29T04:40:22.406Z,0.57
2024-02-29T04:42:49.397Z,0.73
2024-02-29T04:45:16.386Z,0.90
2024-02-29T04:47:43.348Z,0.80
2024-02-29T04:50:10.849Z,0.98
2024-02-29T04:52:37.708Z,0.70
2024-02-29T04:55:04.901Z,0.63
2024-02-29T04:57:31.776Z,0.32
2024-02-29T04:59:58.582Z,1.02
2024-02-29T05:02:25.407Z,0.43
2024-02-29T05:04:52.235Z,0.60
2024-02-29T05:07:19.193Z,0.90
2024-02-29T05:09:46.186Z,0.70
2024-02-29T05:12:13.079Z,0.57
2024-02-29T05:14:39.912Z,0.73
2024-02-29T05:17:06.854Z,0.60
2024-02-29T05:19:33.780Z,1.30
2024-02-29T05:22:00.682Z,0.80
2024-02-29T05:24:27.639Z,0.70
2024-02-29T05:26:54.502Z,0.57
2024-02-29T05:29:21.340Z,0.75
2024-02-29T05:31:54.989Z,1.20
2024-02-29T05:34:22.138Z,0.75
2024-02-29T05:36:49.264Z,1.25
2024-02-29T05:39:16.597Z,1.33
2024-02-29T05:41:43.438Z,0.90
2024-02-29T05:44:10.313Z,1.52
2024-02-29T05:46:37.699Z,0.93
2024-02-29T05:49:04.677Z,1.85
2024-02-29T05:51:31.814Z,1.40
2024-02-29T05:53:58.720Z,1.35
2024-02-29T05:56:25.551Z,1.95
2024-02-29T05:58:52.511Z,1.50
2024-02-29T06:01:19.706Z,1.67
2024-02-29T06:03:46.971Z,2.17
2024-02-29T06:06:16.684Z,2.78
2024-02-29T06:08:43.843Z,1.60
2024-02-29T06:11:16.992Z,1.52
2024-02-29T06:13:44.714Z,1.88
2024-02-29T06:16:15.270Z,2.45
2024-02-29T06:18:43.490Z,2.22
2024-02-29T06:21:11.117Z,1.92
2024-02-29T06:23:38.097Z,2.72
2024-02-29T06:26:05.530Z,2.55
2024-02-29T06:28:32.747Z,1.90
2024-02-29T06:31:00.114Z,1.50
2024-02-29T06:33:27.206Z,2.05
2024-02-29T06:35:54.309Z,2.55
2024-02-29T06:38:21.933Z,1.98
2024-02-29T06:40:49.098Z,2.45
2024-02-29T06:43:16.398Z,2.13
2024-02-29T06:45:49.179Z,2.42
2024-02-29T06:48:20.443Z,2.47
2024-02-29T06:50:47.515Z,2.73
2024-02-29T06:53:14.766Z,1.80
2024-02-29T06:55:41.884Z,2.38
2024-02-29T06:58:09.129Z,2.22
2024-02-29T07:00:36.223Z,1.85
2024-02-29T07:03:03.250Z,1.73
2024-02-29T07:05:32.573Z,2.67
2024-02-29T07:08:02.604Z,1.10
2024-02-29T07:10:30.582Z,1.15
2024-02-29T07:12:57.801Z,1.42
2024-02-29T07:15:25.060Z,2.08
2024-02-29T07:17:52.448Z,1.35
2024-02-29T07:20:19.510Z,1.48
2024-02-29T07:22:47.667Z,1.83
2024-02-29T07:25:18.073Z,1.83
2024-02-29T07:27:47.270Z,1.58
2024-02-29T07:30:15.208Z,1.50
2024-02-29T07:32:42.566Z,1.23
2024-02-29T07:35:14.606Z,1.38
2024-02-29T07:40:12.459Z,1.60
2024-02-29T07:42:40.616Z,1.58
2024-02-29T07:45:10.659Z,1.60
2024-02-29T07:47:37.973Z,2.15
2024-02-29T07:50:06.669Z,1.38
2024-02-29T07:52:33.993Z,1.50
2024-02-29T07:55:01.002Z,1.25
2024-02-29T07:57:28.278Z,2.08
2024-02-29T07:59:58.575Z,2.45
2024-02-29T08:05:09.550Z,1.75
2024-02-29T08:07:40.309Z,1.63
2024-02-29T08:10:08.100Z,1.67
2024-02-29T08:12:35.267Z,2.22
2024-02-29T08:15:02.382Z,1.30
2024-02-29T08:17:30.254Z,2.72
2024-02-29T08:19:57.830Z,2.30
2024-02-29T08:22:27.720Z,2.78
2024-02-29T08:25:02.017Z,2.53
2024-02-29T08:27:37.385Z,2.17
2024-02-29T08:32:28.383Z,8.57
2024-02-29T08:32:52.610Z,3.13
2024-02-29T08:35:20.121Z,2.03
2024-02-29T08:37:47.251Z,2.10
2024-02-29T08:45:45.088Z,6.85
2024-02-29T08:51:15.630Z,2.65
2024-02-29T08:54:06.354Z,1.88
2024-02-29T08:56:48.462Z,2.10
2024-02-29T09:05:03.009Z,3.85
2024-02-29T09:07:33.066Z,2.13
2024-02-29T09:10:00.725Z,1.75
2024-02-29T09:12:28.223Z,2.22
2024-02-29T09:14:58.861Z,2.50
2024-02-29T09:17:28.410Z,2.72
2024-02-29T09:20:02.412Z,1.70
2024-02-29T09:22:29.450Z,2.22
2024-02-29T09:24:57.502Z,1.80
2024-02-29T09:27:24.621Z,2.60
2024-02-29T09:29:51.857Z,1.95
2024-02-29T09:32:21.639Z,1.75
2024-02-29T09:34:52.094Z,2.47
2024-02-29T09:37:19.730Z,1.40
2024-02-29T09:39:46.880Z,1.65
2024-02-29T09:42:15.366Z,1.92
2024-02-29T09:44:43.869Z,2.13
2024-02-29T09:47:13.991Z,4.47
2024-02-29T09:49:42.201Z,1.67
2024-02-29T09:52:10.983Z,1.90
2024-02-29T09:54:41.097Z,1.92
2024-02-29T09:57:13.167Z,1.88
2024-02-29T09:59:43.168Z,1.30
2024-02-29T10:02:17.350Z,1.80
2024-02-29T10:04:45.232Z,3.05
2024-02-29T10:07:12.792Z,9.68
2024-02-29T10:09:39.821Z,2.05
2024-02-29T10:12:08.935Z,3.00
2024-02-29T10:14:36.243Z,2.33
2024-02-29T10:17:05.456Z,1.92
2024-02-29T10:19:34.550Z,1.80
2024-02-29T10:22:01.568Z,1.90
2024-02-29T10:24:28.612Z,1.63
2024-02-29T10:27:03.530Z,1.90
2024-02-29T10:29:31.089Z,2.00
2024-02-29T10:32:01.310Z,1.85
2024-02-29T10:34:28.452Z,1.60
2024-02-29T10:36:59.519Z,1.58
2024-02-29T10:39:27.453Z,1.42
2024-02-29T10:41:59.648Z,1.80
2024-02-29T10:44:31.860Z,2.47
2024-02-29T10:47:06.834Z,2.20
2024-02-29T10:49:45.468Z,2.15
2024-02-29T10:52:27.442Z,2.60
2024-02-29T10:57:38.190Z,2.97
2024-02-29T11:00:06.548Z,2.92
2024-02-29T11:02:33.722Z,2.17
2024-02-29T11:05:01.027Z,1.40
2024-02-29T11:07:28.394Z,2.60
2024-02-29T11:09:55.905Z,1.45
2024-02-29T11:12:23.250Z,2.15
2024-02-29T11:14:53.175Z,2.65
2024-02-29T11:17:20.338Z,3.05
2024-02-29T11:19:58.112Z,3.40
2024-02-29T11:22:35.795Z,4.40
2024-02-29T11:25:12.238Z,2.85
2024-02-29T11:27:48.417Z,2.88
2024-02-29T11:30:20.200Z,2.80
2024-02-29T11:32:47.242Z,3.33
2024-02-29T11:35:16.111Z,1.77
2024-02-29T11:37:48.021Z,1.63
2024-02-29T11:40:25.635Z,2.42
2024-02-29T11:43:03.187Z,1.98
2024-02-29T11:45:37.612Z,3.22
2024-02-29T11:48:05.651Z,3.47
2024-02-29T11:50:32.749Z,1.58
2024-02-29T11:53:04.817Z,2.90
2024-02-29T11:55:32.350Z,2.67
2024-02-29T11:58:08.388Z,2.10
2024-02-29T12:00:35.479Z,2.67
2024-02-29T12:03:06.799Z,1.88
2024-02-29T12:05:36.316Z,1.95
2024-02-29T12:08:04.318Z,3.00
2024-02-29T12:10:34.769Z,3.03
2024-02-29T12:13:02.231Z,2.25
2024-02-29T12:15:31.105Z,1.38
2024-02-29T12:18:00.810Z,2.10
2024-02-29T12:20:32.668Z,1.38
2024-02-29T12:23:00.718Z,2.08
2024-02-29T12:25:28.280Z,2.33
2024-02-29T12:27:58.087Z,1.50
2024-02-29T12:30:27.954Z,1.70
2024-02-29T12:32:56.416Z,1.42
2024-02-29T12:35:28.530Z,1.83
2024-02-29T12:37:56.820Z,3.03
2024-02-29T12:40:28.198Z,1.98
2024-02-29T12:43:06.058Z,3.53
2024-02-29T12:45:34.064Z,1.88
2024-02-29T12:48:02.846Z,3.22
2024-02-29T12:50:34.595Z,2.10
2024-02-29T12:53:01.897Z,2.13
2024-02-29T12:55:30.208Z,2.03
2024-02-29T12:57:57.358Z,2.35
2024-02-29T13:00:26.179Z,1.75
2024-02-29T13:02:53.993Z,1.83
2024-02-29T13:05:22.214Z,2.53
2024-02-29T13:07:49.742Z,2.45
2024-02-29T13:10:17.211Z,2.17
2024-02-29T13:12:54.225Z,2.05
2024-02-29T13:15:24.466Z,2.58
2024-02-29T13:17:51.396Z,2.42
2024-02-29T13:20:22.915Z,2.47
2024-02-29T13:22:50.137Z,2.20
2024-02-29T13:25:17.750Z,2.22
2024-02-29T13:27:46.881Z,2.58
2024-02-29T13:30:15.589Z,3.00
2024-02-29T13:32:51.546Z,2.53
2024-02-29T13:35:19.849Z,2.67
2024-02-29T13:37:48.131Z,4.65
2024-02-29T13:40:15.182Z,2.13
2024-02-29T13:42:44.121Z,2.53
2024-02-29T13:45:12.411Z,2.22
2024-02-29T13:47:53.755Z,2.05
2024-02-29T13:50:21.988Z,2.83
2024-02-29T13:52:49.878Z,2.03
2024-02-29T13:55:17.237Z,2.92
2024-02-29T13:57:44.502Z,3.03
2024-02-29T14:00:11.879Z,2.35
2024-02-29T14:02:41.134Z,3.60
2024-02-29T14:05:08.466Z,5.47
2024-02-29T14:07:35.781Z,10.15
2024-02-29T14:10:03.660Z,3.83
2024-02-29T14:12:32.907Z,2.33
2024-02-29T14:14:59.838Z,2.38
2024-02-29T14:17:28.754Z,1.90
2024-02-29T14:19:55.679Z,1.80
2024-02-29T14:22:22.777Z,2.45
2024-02-29T14:24:50.606Z,2.35
2024-02-29T14:27:18.320Z,1.75
2024-02-29T14:29:45.865Z,3.67
2024-02-29T14:32:12.978Z,2.20
2024-02-29T14:34:42.090Z,1.65
2024-02-29T14:37:14.114Z,1.70
2024-02-29T14:39:44.523Z,1.63
2024-02-29T14:42:11.559Z,2.75
2024-02-29T14:44:38.664Z,2.20
2024-02-29T14:47:05.829Z,2.58
2024-02-29T14:49:34.478Z,1.83
2024-02-29T14:52:03.732Z,2.10
2024-02-29T14:54:33.384Z,3.72
2024-02-29T14:57:22.892Z,1.77
2024-02-29T14:59:48.819Z,2.38
2024-02-29T15:02:16.477Z,2.17
2024-02-29T15:04:52.730Z,1.80
2024-02-29T15:07:26.183Z,2.20
2024-02-29T15:09:53.299Z,2.63
2024-02-29T15:12:20.844Z,2.03
2024-02-29T15:14:50.181Z,4.32
2024-02-29T15:17:20.068Z,2.88
2024-02-29T15:19:49.488Z,3.10
2024-02-29T15:22:18.354Z,9.55
2024-02-29T15:24:48.784Z,11.45
2024-02-29T15:27:22.554Z,12.43
2024-02-29T15:29:51.401Z,6.05
2024-02-29T15:32:18.616Z,5.95
2024-02-29T15:34:50.489Z,6.00
2024-02-29T15:39:44.628Z,4.93
2024-02-29T15:42:14.222Z,3.90
2024-02-29T15:44:41.357Z,3.83
2024-02-29T15:47:09.544Z,3.40
2024-02-29T15:49:38.975Z,4.03
2024-02-29T15:52:06.625Z,4.43
2024-02-29T15:54:40.847Z,3.50
2024-02-29T15:57:10.951Z,3.42
2024-02-29T15:59:39.247Z,3.78
2024-02-29T16:02:09.322Z,3.63
2024-02-29T16:04:38.192Z,4.55
2024-02-29T16:07:05.363Z,3.58
2024-02-29T16:09:33.547Z,3.58
2024-02-29T16:12:01.911Z,3.38
2024-02-29T16:14:33.007Z,3.13
2024-02-29T16:17:07.738Z,3.10
2024-02-29T16:19:39.639Z,3.38
2024-02-29T16:24:38.531Z,4.53
2024-02-29T16:27:09.550Z,3.47
2024-02-29T16:29:40.818Z,6.17
2024-02-29T16:32:09.657Z,4.22
2024-02-29T16:34:37.608Z,3.78
2024-02-29T16:37:11.451Z,3.05
2024-02-29T16:39:39.723Z,3.70
2024-02-29T16:42:06.870Z,4.50
2024-02-29T16:44:34.150Z,4.55
2024-02-29T16:47:02.474Z,6.25
2024-02-29T16:49:45.824Z,6.50
2024-02-29T16:52:15.282Z,7.57
2024-02-29T16:54:49.255Z,7.18
2024-02-29T16:57:19.149Z,7.07
2024-02-29T16:59:46.324Z,7.40
2024-02-29T17:02:16.500Z,5.75
2024-02-29T17:04:47.311Z,6.78
2024-02-29T17:07:21.196Z,5.68
2024-02-29T17:09:56.534Z,4.60
2024-02-29T17:12:25.707Z,4.63
2024-02-29T17:14:53.153Z,5.22
2024-02-29T17:17:29.542Z,5.38
2024-02-29T17:19:57.349Z,6.75
2024-02-29T17:22:28.582Z,5.95
2024-02-29T17:24:58.504Z,8.05
2024-02-29T17:27:36.751Z,9.45
2024-02-29T17:30:07.408Z,7.85
2024-02-29T17:32:45.810Z,5.45
2024-02-29T17:35:32.686Z,6.45
2024-02-29T17:38:07.706Z,7.50
2024-02-29T17:40:35.809Z,6.78
2024-02-29T17:43:02.896Z,9.15
2024-02-29T17:45:29.778Z,7.13
2024-02-29T17:47:59.247Z,8.38
2024-02-29T17:50:30.859Z,7.45
2024-02-29T17:52:58.705Z,6.20
2024-02-29T17:55:27.396Z,6.22
2024-02-29T17:57:54.597Z,6.90
2024-02-29T18:00:22.257Z,6.68
2024-02-29T18:02:49.852Z,6.88
2024-02-29T18:05:17.153Z,7.75
2024-02-29T18:07:51.069Z,9.93
2024-02-29T18:10:25.817Z,8.95
2024-02-29T18:12:52.977Z,8.10
2024-02-29T18:15:19.968Z,7.88
2024-02-29T18:17:47.759Z,7.78
2024-02-29T18:20:20.913Z,18.65
2024-02-29T18:22:54.328Z,18.17
2024-02-29T18:25:23.901Z,28.63
2024-02-29T18:27:52.210Z,15.63
2024-02-29T18:30:20.601Z,8.05
2024-02-29T18:33:00.084Z,6.65
2024-02-29T18:35:29.728Z,8.20
2024-02-29T18:37:57.913Z,7.82
2024-02-29T18:40:27.739Z,7.88
2024-02-29T18:42:57.542Z,7.75
2024-02-29T18:45:25.822Z,10.88
2024-02-29T18:47:52.890Z,10.35
2024-02-29T18:50:26.173Z,10.25
2024-02-29T18:52:55.706Z,8.25
2024-02-29T18:55:26.815Z,8.18
2024-02-29T18:57:53.913Z,9.90
2024-02-29T19:00:26.581Z,8.63
2024-02-29T19:02:58.866Z,9.80
2024-02-29T19:05:28.228Z,6.95
2024-02-29T19:07:55.300Z,7.53
2024-02-29T19:10:24.862Z,5.15
2024-02-29T19:12:51.945Z,6.13
2024-02-29T19:15:18.922Z,5.78
2024-02-29T19:17:48.360Z,7.15
2024-02-29T19:20:21.566Z,5.15
2024-02-29T19:22:48.644Z,4.05
2024-02-29T19:25:18.029Z,5.18
2024-02-29T19:27:45.072Z,5.28
2024-02-29T19:30:12.524Z,3.83
2024-02-29T19:32:40.291Z,4.55
2024-02-29T19:35:10.291Z,7.20
2024-02-29T19:37:37.167Z,7.35
2024-02-29T19:40:06.887Z,8.43
2024-02-29T19:42:37.236Z,10.27
2024-02-29T19:45:05.041Z,10.75
2024-02-29T19:47:32.094Z,9.00
2024-02-29T19:50:01.607Z,7.20
2024-02-29T19:52:39.475Z,8.48
2024-02-29T19:55:11.964Z,9.15
2024-02-29T19:57:42.420Z,8.25
2024-02-29T20:00:16.788Z,9.30
2024-02-29T20:02:49.879Z,8.13
2024-02-29T20:05:16.924Z,7.05
2024-02-29T20:07:44.061Z,7.10
2024-02-29T20:10:16.858Z,8.73
2024-02-29T20:12:48.718Z,8.73
2024-02-29T20:15:16.462Z,9.13
2024-02-29T20:17:46.533Z,12.45
2024-02-29T20:20:19.661Z,11.15
2024-02-29T20:22:53.969Z,10.63
2024-02-29T20:25:22.446Z,9.52
2024-02-29T20:27:53.741Z,15.55
2024-02-29T20:30:22.191Z,29.65
2024-02-29T20:32:52.054Z,28.92
2024-02-29T20:35:20.971Z,10.65
2024-02-29T20:37:48.202Z,19.70
2024-02-29T20:40:15.870Z,9.23
2024-02-29T20:42:43.355Z,7.72
2024-02-29T20:45:12.935Z,9.07
2024-02-29T20:47:43.816Z,8.10
2024-02-29T20:50:11.338Z,9.30
2024-02-29T20:52:40.662Z,7.72
2024-02-29T20:55:08.379Z,8.43
2024-02-29T20:57:35.978Z,8.35
2024-02-29T21:00:12.226Z,8.00
2024-02-29T21:02:44.599Z,8.25
2024-02-29T21:05:11.529Z,8.02
2024-02-29T21:07:43.233Z,8.48
2024-02-29T21:10:13.334Z,7.93
2024-02-29T21:12:44.901Z,8.30
2024-02-29T21:15:12.102Z,9.60
2024-02-29T21:17:44.698Z,7.00
2024-02-29T21:20:17.330Z,6.45
2024-02-29T21:22:45.046Z,6.70
2024-02-29T21:25:12.723Z,4.90
2024-02-29T21:27:39.896Z,4.75
2024-02-29T21:30:08.666Z,5.38
2024-02-29T21:32:35.821Z,4.95
2024-02-29T21:35:04.264Z,5.43
2024-02-29T21:37:33.658Z,5.35
2024-02-29T21:40:06.844Z,5.22
2024-02-29T21:42:34.177Z,5.10
2024-02-29T21:45:03.575Z,5.22
2024-02-29T21:47:30.573Z,5.00
2024-02-29T21:50:00.198Z,4.50
2024-02-29T21:52:27.550Z,4.38
2024-02-29T21:54:56.741Z,4.93
2024-02-29T21:57:26.128Z,4.22
2024-02-29T21:59:54.541Z,4.30
2024-02-29T22:02:22.195Z,5.32
2024-02-29T22:04:51.603Z,5.22
2024-02-29T22:07:20.348Z,7.00
2024-02-29T22:09:47.754Z,4.18
2024-02-29T22:12:16.547Z,4.35
2024-02-29T22:14:43.545Z,4.60
2024-02-29T22:17:13.610Z,5.28
2024-02-29T22:19:40.509Z,3.83
2024-02-29T22:22:09.689Z,5.35
2024-02-29T22:24:42.041Z,4.20
2024-02-29T22:27:11.714Z,5.40
2024-02-29T22:29:39.904Z,5.38
2024-02-29T22:32:11.344Z,5.28
2024-02-29T22:34:38.239Z,5.55
2024-02-29T22:37:05.461Z,4.65
2024-02-29T22:39:34.365Z,4.90
2024-02-29T22:42:02.716Z,6.22
2024-02-29T22:44:32.278Z,5.10
2024-02-29T22:46:59.331Z,4.65
2024-02-29T22:49:28.374Z,4.65
2024-02-29T22:51:57.404Z,7.25
2024-02-29T22:54:28.241Z,7.40
2024-02-29T22:56:55.130Z,14.75
2024-02-29T22:59:24.426Z,5.68
2024-02-29T23:01:51.446Z,4.32
2024-02-29T23:04:19.470Z,5.18
2024-02-29T23:06:46.900Z,6.97
2024-02-29T23:09:13.818Z,5.88
2024-02-29T23:11:41.582Z,5.95
2024-02-29T23:14:08.927Z,6.45
2024-02-29T23:16:35.841Z,6.22
2024-02-29T23:19:02.663Z,4.70
2024-02-29T23:21:29.541Z,5.63
2024-02-29T23:23:56.383Z,5.53
2024-02-29T23:26:23.436Z,6.07
2024-02-29T23:28:50.298Z,5.82
2024-02-29T23:31:17.948Z,4.72
2024-02-29T23:33:44.926Z,5.95
2024-02-29T23:36:11.825Z,6.10
2024-02-29T23:38:38.834Z,5.53
2024-02-29T23:41:05.883Z,5.40
2024-02-29T23:43:32.762Z,5.43
2024-02-29T23:45:59.973Z,5.03
2024-02-29T23:48:26.954Z,4.35
2024-02-29T23:50:53.798Z,4.55
2024-02-29T23:53:20.634Z,4.30
2024-02-29T23:55:47.453Z,5.13
2024-02-29T23:58:14.733Z,4.63
